Time;durP1;ratioP1;P1;durP2;ratioP2;P2;SDS_P1;SDS_P2;PMS_P1;PMS_P2;Temp;Humidity;BMP_temperature;BMP_pressure;BME280_temperature;BME280_humidity;BME280_pressure;Samples;Min_cycle;Max_cycle;Signal;HPM_P1;HPM_P2
2022/01/13 00:02:13;;;;;;;33.40;13.60;;;-3276.40;64.40;;;;;;5107432;28;19903;-82
2022/01/13 00:04:39;;;;;;;;;;;-3276.40;64.20;;;;;;5113725;28;20169;-83
2022/01/13 00:07:10;;;;;;;52.30;20.47;;;-3276.40;64.30;;;;;;5113599;28;20628;-82
2022/01/13 00:09:35;;;;;;;63.43;22.50;;;-3276.40;64.20;;;;;;5113812;28;20612;-83
2022/01/13 00:12:01;;;;;;;;;;;-3276.40;64.40;;;;;;5102329;28;20060;-83
2022/01/13 00:14:40;;;;;;;25.30;10.90;;;-3276.50;64.50;;;;;;5113551;28;19914;-83
2022/01/13 00:17:23;;;;;;;59.90;22.23;;;-3276.50;64.30;;;;;;5098873;28;20388;-83
2022/01/13 00:20:07;;;;;;;62.87;22.53;;;-3276.50;64.40;;;;;;5108606;28;20034;-83
2022/01/13 00:25:01;;;;;;;;;;;-3276.60;64.50;;;;;;5095987;28;20036;-83
2022/01/13 00:27:29;;;;;;;61.43;20.80;;;-3276.60;64.60;;;;;;5092581;28;19904;-82
2022/01/13 00:29:57;;;;;;;56.93;21.97;;;-3276.70;64.40;;;;;;5104642;28;20043;-81
2022/01/13 00:32:26;;;;;;;56.30;19.93;;;-3276.70;64.50;;;;;;5113670;28;20127;-82
2022/01/13 00:34:52;;;;;;;55.17;20.27;;;-3276.70;64.60;;;;;;5101901;28;20028;-82
2022/01/13 00:37:17;;;;;;;;;;;-3276.70;64.60;;;;;;5113868;28;20039;-82
2022/01/13 00:39:44;;;;;;;54.57;18.70;;;0.00;64.70;;;;;;5110425;28;19986;-82
2022/01/13 00:42:09;;;;;;;56.20;20.77;;;0.00;64.50;;;;;;5106336;28;20396;-82
2022/01/13 00:44:37;;;;;;;;;;;0.00;64.60;;;;;;5098420;28;20030;-82
2022/01/13 00:47:05;;;;;;;55.00;21.23;;;0.00;64.70;;;;;;5093871;28;19930;-81
2022/01/13 00:49:31;;;;;;;40.43;13.77;;;0.00;64.60;;;;;;5101558;28;20017;-82
2022/01/13 00:51:56;;;;;;;;;;;0.00;64.80;;;;;;5093327;28;20008;-82
2022/01/13 00:54:22;;;;;;;45.47;18.23;;;0.00;65.00;;;;;;5104171;28;20371;-82
2022/01/13 00:56:48;;;;;;;49.03;19.20;;;0.00;64.80;;;;;;5105047;28;20055;-82
2022/01/13 00:59:14;;;;;;;;;;;0.00;65.10;;;;;;5109762;28;20028;-82
2022/01/13 01:01:48;;;;;;;33.53;13.43;;;0.00;65.20;;;;;;5105716;28;20280;-81
2022/01/13 01:04:15;;;;;;;55.03;21.63;;;0.00;65.30;;;;;;5111502;28;20503;-82
2022/01/13 01:06:41;;;;;;;58.90;21.83;;;0.00;65.30;;;;;;5102177;28;20054;-83
2022/01/13 01:09:15;;;;;;;61.77;21.83;;;0.00;65.50;;;;;;5093835;28;20124;-81
2022/01/13 01:11:43;;;;;;;40.80;17.33;;;0.00;65.80;;;;;;5093783;28;20020;-82
2022/01/13 01:14:11;;;;;;;66.30;22.00;;;0.00;66.10;;;;;;5102214;28;20024;-82
2022/01/13 01:16:36;;;;;;;44.83;15.83;;;0.00;66.20;;;;;;5097758;28;20028;-82
2022/01/13 01:19:08;;;;;;;;;;;0.00;66.40;;;;;;5095833;28;20380;-83
2022/01/13 01:24:42;;;;;;;42.93;15.80;;;0.00;66.70;;;;;;5093380;28;20083;-82
2022/01/13 01:27:15;;;;;;;45.77;18.30;;;0.00;67.30;;;;;;5104829;28;20023;-83
2022/01/13 01:29:42;;;;;;;50.83;19.53;;;0.00;67.70;;;;;;5097828;28;20031;-83
2022/01/13 01:32:11;;;;;;;39.27;15.50;;;0.00;67.90;;;;;;5104813;28;20065;-83
2022/01/13 01:34:52;;;;;;;58.27;21.03;;;0.00;68.70;;;;;;5109338;28;20028;-82
2022/01/13 01:37:19;;;;;;;30.07;12.77;;;0.00;68.90;;;;;;5109473;28;20050;-83
2022/01/13 01:39:48;;;;;;;32.30;12.50;;;0.00;69.60;;;;;;5112763;28;20085;-83
2022/01/13 01:42:14;;;;;;;70.00;23.40;;;0.00;69.80;;;;;;5112066;28;20536;-83
2022/01/13 01:44:44;;;;;;;45.53;16.90;;;0.00;70.10;;;;;;5096403;28;20066;-83
2022/01/13 01:47:13;;;;;;;28.50;11.37;;;0.00;70.60;;;;;;5102512;28;20039;-83
2022/01/13 01:49:42;;;;;;;56.87;19.80;;;0.00;70.90;;;;;;5097612;28;20430;-82
2022/01/13 01:52:10;;;;;;;30.50;11.73;;;0.00;71.30;;;;;;5095826;28;20025;-83
2022/01/13 01:54:36;;;;;;;29.80;13.20;;;0.00;71.30;;;;;;5109518;28;20461;-82
2022/01/13 01:57:02;;;;;;;;;;;-3276.70;71.60;;;;;;5095931;28;20089;-82
2022/01/13 01:59:30;;;;;;;46.20;16.03;;;0.00;72.60;;;;;;5096926;28;19912;-83
2022/01/13 02:01:57;;;;;;;18.43;7.73;;;0.00;72.40;;;;;;5102186;28;20130;-82
2022/01/13 02:04:25;;;;;;;59.57;21.57;;;-3276.70;72.90;;;;;;5116199;28;20073;-82
2022/01/13 02:06:54;;;;;;;62.33;23.53;;;-3276.70;73.30;;;;;;5106001;28;20016;-82
2022/01/13 02:09:20;;;;;;;32.17;12.03;;;-3276.70;73.60;;;;;;5111811;28;20024;-83
2022/01/13 02:11:49;;;;;;;;;;;-3276.70;73.90;;;;;;5103016;28;20031;-83
2022/01/13 02:16:53;;;;;;;52.33;20.90;;;-3276.70;73.60;;;;;;5115685;28;20426;-82
2022/01/13 02:19:19;;;;;;;65.90;24.77;;;-3276.70;74.00;;;;;;5108641;28;20051;-81
2022/01/13 02:21:45;;;;;;;;;;;-3276.70;74.40;;;;;;5114595;28;20031;-81
2022/01/13 02:24:11;;;;;;;51.50;15.73;;;-3276.70;74.50;;;;;;5095336;28;19920;-82
2022/01/13 02:26:36;;;;;;;;;;;0.00;74.70;;;;;;5111065;28;20480;-83
2022/01/13 02:29:03;;;;;;;20.13;9.60;;;0.00;75.10;;;;;;5096295;28;19957;-83
2022/01/13 02:31:29;;;;;;;70.43;23.47;;;0.00;75.50;;;;;;5096419;28;20480;-82
2022/01/13 02:33:54;;;;;;;;;;;-3276.70;75.50;;;;;;5097354;28;20024;-83
2022/01/13 02:36:22;;;;;;;49.10;17.20;;;-3276.70;75.70;;;;;;5111154;28;19908;-82
2022/01/13 02:38:49;;;;;;;31.10;11.97;;;-3276.70;75.90;;;;;;5105634;28;20058;-83
2022/01/13 02:41:14;;;;;;;55.17;21.40;;;-3276.70;75.80;;;;;;5106534;28;20020;-81
2022/01/13 02:43:40;;;;;;;;;;;-3276.70;76.30;;;;;;5100311;28;20032;-83
2022/01/13 02:49:10;;;;;;;75.57;27.43;;;-3276.70;76.10;;;;;;5016026;28;20080;-83
2022/01/13 02:51:38;;;;;;;76.40;27.23;;;0.00;76.20;;;;;;5088212;28;20141;-79
2022/01/13 02:54:05;;;;;;;79.23;27.73;;;0.00;76.20;;;;;;5105817;28;20028;-81
2022/01/13 02:56:31;;;;;;;73.83;23.37;;;0.00;76.20;;;;;;5115658;28;20476;-81
2022/01/13 02:58:57;;;;;;;73.73;27.13;;;0.00;76.10;;;;;;5115397;28;20019;-83
2022/01/13 03:01:22;;;;;;;;;;;0.00;76.10;;;;;;5106183;28;20447;-82
2022/01/13 03:03:48;;;;;;;44.83;19.20;;;0.00;76.30;;;;;;5102383;28;19908;-82
2022/01/13 03:06:15;;;;;;;;;;;0.10;76.10;;;;;;5108377;28;20028;-82
2022/01/13 03:08:47;;;;;;;39.72;15.63;;;0.10;76.40;;;;;;5110699;28;20328;-82
2022/01/13 03:11:14;;;;;;;41.93;15.73;;;0.10;76.50;;;;;;5103325;28;20076;-81
2022/01/13 03:13:48;;;;;;;31.50;13.73;;;0.10;76.50;;;;;;5102733;28;20119;-82
2022/01/13 03:16:15;;;;;;;67.67;24.27;;;0.10;77.00;;;;;;5114164;28;20548;-82
2022/01/13 03:18:40;;;;;;;60.53;21.40;;;0.10;76.90;;;;;;5115011;28;20042;-82
2022/01/13 03:21:06;;;;;;;;;;;0.10;77.00;;;;;;5107040;28;20020;-82
2022/01/13 03:23:36;;;;;;;70.73;17.37;;;0.10;77.50;;;;;;5109790;28;19915;-83
2022/01/13 03:26:03;;;;;;;87.57;30.43;;;0.10;77.20;;;;;;5097420;28;20028;-83
2022/01/13 03:28:30;;;;;;;93.80;30.50;;;0.10;77.30;;;;;;5103906;28;20460;-82
2022/01/13 03:31:00;;;;;;;52.70;18.53;;;0.10;77.30;;;;;;5108350;28;20185;-81
2022/01/13 03:33:26;;;;;;;96.10;32.10;;;0.10;77.30;;;;;;5102282;28;20012;-83
2022/01/13 03:35:52;;;;;;;46.30;17.07;;;0.20;77.10;;;;;;5101530;28;20028;-82
2022/01/13 03:38:18;;;;;;;;;;;0.20;77.20;;;;;;5102619;28;20019;-83
2022/01/13 03:40:44;;;;;;;74.57;24.40;;;0.20;77.20;;;;;;5095368;28;19947;-82
2022/01/13 03:43:10;;;;;;;74.68;28.13;;;0.30;77.20;;;;;;5100484;28;20024;-82
2022/01/13 03:45:37;;;;;;;44.60;17.43;;;0.20;77.10;;;;;;5111893;28;20115;-82
2022/01/13 03:48:03;;;;;;;22.90;9.50;;;0.30;77.20;;;;;;5114473;28;20033;-82
2022/01/13 03:50:29;;;;;;;63.50;22.70;;;0.30;77.30;;;;;;5107762;28;20438;-83
2022/01/13 03:52:59;;;;;;;;;;;0.30;77.30;;;;;;5106793;28;20024;-82
2022/01/13 03:55:36;;;;;;;63.43;22.90;;;0.30;77.50;;;;;;5103099;28;19912;-82
2022/01/13 03:58:32;;;;;;;69.93;24.33;;;0.30;77.30;;;;;;5094065;28;20032;-82
2022/01/13 04:01:51;;;;;;;52.67;16.80;;;0.30;77.40;;;;;;5077675;28;20068;-82
2022/01/13 04:04:17;;;;;;;74.60;25.93;;;0.30;77.50;;;;;;5008431;28;20152;-85
2022/01/13 04:06:44;;;;;;;;;;;0.40;77.50;;;;;;5091206;28;20065;-85
2022/01/13 04:09:35;;;;;;;74.53;27.47;;;0.40;77.50;;;;;;5106015;28;19915;-85
2022/01/13 04:12:04;;;;;;;73.07;25.53;;;0.40;77.20;;;;;;5105630;28;20058;-84
2022/01/13 04:14:49;;;;;;;85.47;28.27;;;0.50;77.20;;;;;;5099494;28;20380;-84
2022/01/13 04:17:20;;;;;;;86.23;28.67;;;0.50;77.40;;;;;;5101386;28;20419;-84
2022/01/13 04:19:46;;;;;;;78.70;26.83;;;0.50;77.30;;;;;;5103561;28;20362;-82
2022/01/13 04:22:13;;;;;;;78.43;25.90;;;0.60;77.30;;;;;;5102366;28;20031;-85
2022/01/13 04:24:42;;;;;;;75.60;25.77;;;0.60;77.20;;;;;;5103813;28;20035;-85
2022/01/13 04:27:09;;;;;;;81.83;27.60;;;0.60;77.20;;;;;;5101503;28;20042;-83
2022/01/13 04:29:38;;;;;;;71.73;24.40;;;0.60;77.10;;;;;;5096462;28;20073;-83
2022/01/13 04:32:04;;;;;;;70.57;26.23;;;0.70;77.30;;;;;;5100256;28;20460;-84
2022/01/13 04:34:31;;;;;;;44.90;17.13;;;0.70;77.30;;;;;;5102351;28;20047;-85
2022/01/13 04:36:59;;;;;;;78.23;27.23;;;0.70;77.60;;;;;;5105638;28;20024;-85
2022/01/13 04:39:27;;;;;;;42.77;15.27;;;0.70;77.40;;;;;;5104456;28;20036;-85
2022/01/13 04:41:53;;;;;;;65.47;21.87;;;0.70;77.40;;;;;;5095160;28;20021;-85
2022/01/13 04:44:22;;;;;;;75.07;25.63;;;0.80;77.40;;;;;;5101990;28;20020;-85
2022/01/13 04:46:50;;;;;;;74.60;26.63;;;0.80;77.50;;;;;;5104254;28;20099;-84
2022/01/13 04:49:18;;;;;;;86.97;28.37;;;0.80;77.40;;;;;;5096482;28;20028;-84
2022/01/13 04:51:47;;;;;;;83.33;27.80;;;0.80;77.30;;;;;;5101083;28;20237;-83
2022/01/13 04:54:13;;;;;;;71.17;24.37;;;0.80;77.30;;;;;;5106164;28;20038;-84
2022/01/13 04:59:17;;;;;;;58.03;20.10;;;0.90;77.30;;;;;;5107082;28;20032;-84
2022/01/13 05:01:43;;;;;;;;;;;0.90;77.40;;;;;;5105737;28;20032;-85
2022/01/13 05:04:08;;;;;;;88.30;26.37;;;1.00;77.50;;;;;;5098278;28;19896;-84
2022/01/13 05:06:35;;;;;;;65.50;23.15;;;1.00;77.30;;;;;;5102972;28;20019;-84
2022/01/13 05:09:01;;;;;;;57.57;20.33;;;0.90;77.30;;;;;;5104603;28;20020;-84
2022/01/13 05:11:27;;;;;;;50.70;18.47;;;0.90;77.50;;;;;;5101289;28;20036;-84
2022/01/13 05:13:53;;;;;;;;;;;0.90;77.50;;;;;;5101512;28;20031;-85
2022/01/13 05:16:36;;;;;;;27.80;11.30;;;0.90;77.60;;;;;;5106575;28;19940;-84
2022/01/13 05:22:15;;;;;;;48.67;15.23;;;1.00;77.60;;;;;;5107666;28;20035;-85
2022/01/13 05:24:33;;;;;;;48.50;17.87;;;1.00;77.80;;;;;;5108937;28;20071;-83
2022/01/13 05:26:58;;;;;;;;;;;1.10;77.80;;;;;;5101590;28;20108;-85
2022/01/13 05:29:24;;;;;;;58.90;22.53;;;1.10;77.90;;;;;;5113826;28;19947;-85
2022/01/13 05:31:50;;;;;;;49.10;18.60;;;1.10;77.90;;;;;;5110868;28;20031;-85
2022/01/13 05:34:16;;;;;;;;;;;1.10;78.10;;;;;;5104197;28;20016;-85
2022/01/13 05:36:42;;;;;;;27.63;13.57;;;1.10;78.10;;;;;;5095288;28;20272;-85
2022/01/13 05:39:07;;;;;;;63.22;21.65;;;1.10;78.10;;;;;;5100958;28;20028;-84
2022/01/13 05:41:33;;;;;;;;;;;1.10;78.10;;;;;;5099199;28;20085;-85
2022/01/13 05:44:00;;;;;;;41.43;15.43;;;1.10;78.30;;;;;;5105795;28;19970;-84
2022/01/13 05:46:26;;;;;;;47.53;17.77;;;1.20;78.30;;;;;;5101394;28;20023;-85
2022/01/13 05:48:54;;;;;;;;;;;1.10;78.40;;;;;;5109918;28;20389;-84
2022/01/13 05:51:20;;;;;;;46.23;15.53;;;1.10;78.50;;;;;;5107823;28;20023;-84
2022/01/13 05:53:46;;;;;;;29.47;13.07;;;1.20;78.40;;;;;;5103794;28;20483;-84
2022/01/13 05:56:12;;;;;;;26.63;11.13;;;1.20;78.70;;;;;;5107542;28;20016;-85
2022/01/13 05:58:38;;;;;;;;;;;1.20;78.90;;;;;;5111647;28;20090;-85
2022/01/13 06:01:03;;;;;;;75.87;22.63;;;1.20;79.00;;;;;;5106095;28;19930;-85
2022/01/13 06:03:29;;;;;;;54.20;20.77;;;1.20;78.80;;;;;;5105874;28;20015;-83
2022/01/13 06:05:54;;;;;;;;;;;1.30;79.00;;;;;;5101567;28;20034;-86
2022/01/13 06:08:20;;;;;;;49.47;18.63;;;1.20;79.00;;;;;;5107362;28;19918;-86
2022/01/13 06:10:46;;;;;;;49.30;18.42;;;1.30;78.80;;;;;;5105445;28;20024;-85
2022/01/13 06:13:13;;;;;;;56.40;17.80;;;1.30;79.00;;;;;;5110315;28;20016;-86
2022/01/13 06:15:39;;;;;;;46.93;16.33;;;1.30;79.00;;;;;;5105896;28;20032;-86
2022/01/13 06:18:09;;;;;;;;;;;1.40;79.00;;;;;;5105817;28;20028;-89
2022/01/13 06:20:34;;;;;;;78.80;27.77;;;1.40;79.00;;;;;;5110826;28;19999;-88
2022/01/13 06:23:02;;;;;;;;;;;1.50;78.90;;;;;;5104479;28;20044;-84
2022/01/13 06:25:27;;;;;;;43.67;15.77;;;1.50;78.90;;;;;;5103157;28;19963;-86
2022/01/13 06:27:53;;;;;;;62.00;22.25;;;1.50;78.90;;;;;;5102105;28;20052;-87
2022/01/13 06:30:19;;;;;;;40.15;14.65;;;1.60;79.00;;;;;;5105006;28;20439;-88
2022/01/13 06:32:46;;;;;;;;;;;1.60;79.20;;;;;;5105544;28;20031;-86
2022/01/13 06:35:13;;;;;;;35.13;14.50;;;1.60;79.20;;;;;;5107326;28;20020;-84
2022/01/13 06:37:40;;;;;;;42.90;14.80;;;1.60;79.10;;;;;;5098753;28;20036;-85
2022/01/13 06:40:08;;;;;;;62.43;19.63;;;1.70;79.20;;;;;;5109416;28;20024;-85
2022/01/13 06:42:33;;;;;;;56.33;17.67;;;1.70;79.20;;;;;;5106899;28;20444;-85
2022/01/13 06:44:59;;;;;;;49.50;17.20;;;1.80;79.20;;;;;;5105712;28;20048;-85
2022/01/13 06:47:26;;;;;;;64.75;21.38;;;1.80;79.20;;;;;;5104155;28;20541;-86
2022/01/13 06:49:51;;;;;;;32.20;13.07;;;1.80;79.10;;;;;;5104657;28;20020;-86
2022/01/13 06:52:17;;;;;;;65.05;22.40;;;1.80;79.00;;;;;;5100722;28;20020;-86
2022/01/13 06:54:43;;;;;;;49.75;16.15;;;1.90;78.90;;;;;;5106258;28;20039;-86
2022/01/13 06:57:09;;;;;;;42.93;16.60;;;2.00;78.90;;;;;;5096050;28;20016;-85
2022/01/13 06:59:34;;;;;;;43.20;17.52;;;2.00;78.80;;;;;;5095859;28;20119;-85
2022/01/13 07:02:02;;;;;;;25.13;13.98;;;2.00;78.70;;;;;;5103751;28;20028;-86
2022/01/13 07:04:29;;;;;;;51.13;18.97;;;2.10;78.60;;;;;;5105646;28;20020;-86
2022/01/13 07:06:56;;;;;;;69.10;23.90;;;2.10;78.50;;;;;;5100252;28;20019;-86
2022/01/13 07:09:21;;;;;;;37.13;14.30;;;2.10;78.40;;;;;;5096139;28;20028;-86
2022/01/13 07:11:48;;;;;;;65.65;24.05;;;2.10;78.40;;;;;;5100407;28;20031;-85
2022/01/13 07:14:14;;;;;;;48.07;17.13;;;2.20;78.30;;;;;;5096572;28;20024;-85
2022/01/13 07:16:42;;;;;;;44.60;17.47;;;2.20;78.20;;;;;;5103353;28;20468;-86
2022/01/13 07:19:12;;;;;;;33.50;12.07;;;2.30;78.10;;;;;;5101347;28;20020;-88
2022/01/13 07:21:39;;;;;;;49.53;19.53;;;2.30;78.00;;;;;;5103274;28;20016;-92
2022/01/13 07:24:06;;;;;;;44.70;18.37;;;2.30;77.90;;;;;;5112091;28;20036;-91
2022/01/13 07:26:31;;;;;;;49.23;20.47;;;2.30;77.80;;;;;;5111251;28;20027;-91
2022/01/13 07:28:57;;;;;;;45.33;17.27;;;2.30;77.70;;;;;;5108801;28;20500;-92
2022/01/13 07:31:23;;;;;;;;;;;2.40;77.60;;;;;;5100388;28;20080;-92
2022/01/13 07:33:48;;;;;;;44.60;18.33;;;2.40;77.50;;;;;;5105766;28;20261;-89
2022/01/13 07:36:14;;;;;;;;;;;2.40;77.10;;;;;;5113851;28;20032;-91
2022/01/13 07:38:40;;;;;;;53.10;22.77;;;2.40;77.10;;;;;;5117394;28;20360;-92
2022/01/13 07:41:05;;;;;;;;;;;2.50;76.90;;;;;;5105065;28;20032;-92
2022/01/13 07:43:31;;;;;;;47.47;20.23;;;2.50;76.90;;;;;;5105140;28;20044;-90
2022/01/13 07:45:57;;;;;;;;;;;2.50;76.70;;;;;;5108875;28;20028;-90
2022/01/13 07:48:24;;;;;;;57.27;23.27;;;2.50;76.80;;;;;;5106747;28;19914;-91
2022/01/13 07:50:50;;;;;;;59.27;21.43;;;2.50;76.70;;;;;;5107221;28;20024;-91
2022/01/13 07:53:16;;;;;;;37.10;16.53;;;2.50;76.80;;;;;;5112064;28;20024;-92
2022/01/13 07:55:42;;;;;;;30.00;12.98;;;2.50;76.80;;;;;;5105958;28;20058;-90
2022/01/13 07:58:11;;;;;;;45.03;17.60;;;2.60;76.90;;;;;;5100099;28;20373;-89
2022/01/13 08:00:37;;;;;;;44.13;17.83;;;2.60;76.70;;;;;;5107625;28;20028;-90
2022/01/13 08:03:03;;;;;;;37.00;14.70;;;2.70;76.70;;;;;;5095532;28;20077;-89
2022/01/13 08:05:28;;;;;;;;;;;2.70;76.60;;;;;;5099468;28;20484;-90
2022/01/13 08:07:54;;;;;;;38.77;14.63;;;2.80;76.50;;;;;;5121660;28;19958;-91
2022/01/13 08:10:20;;;;;;;13.95;7.18;;;2.80;76.00;;;;;;5108439;28;20111;-92
2022/01/13 08:12:45;;;;;;;;;;;2.90;75.90;;;;;;5104693;28;20023;-91
2022/01/13 08:15:14;;;;;;;36.67;15.30;;;2.90;75.70;;;;;;5108952;28;19911;-91
2022/01/13 08:20:35;;;;;;;40.73;17.90;;;2.80;75.40;;;;;;5104966;28;20180;-88
2022/01/13 08:23:01;;;;;;;45.30;17.10;;;2.80;75.60;;;;;;5096031;28;20038;-88
2022/01/13 08:25:29;;;;;;;38.53;15.60;;;2.80;75.70;;;;;;5103269;28;20063;-88
2022/01/13 08:27:55;;;;;;;36.30;14.80;;;2.90;75.60;;;;;;5087972;28;20099;-88
2022/01/13 08:30:22;;;;;;;22.87;9.57;;;2.90;75.60;;;;;;5092657;28;20044;-88
2022/01/13 08:32:48;;;;;;;34.00;14.63;;;2.90;75.50;;;;;;5093974;28;20024;-89
2022/01/13 08:35:14;;;;;;;40.65;15.85;;;2.90;75.50;;;;;;5094152;28;20537;-88
2022/01/13 08:37:40;;;;;;;32.95;12.98;;;3.00;75.10;;;;;;5097275;28;20051;-89
2022/01/13 08:40:10;;;;;;;30.95;12.40;;;3.00;75.00;;;;;;5094401;28;20032;-88
2022/01/13 08:42:36;;;;;;;39.03;14.83;;;3.10;75.10;;;;;;5100814;28;20031;-88
2022/01/13 08:45:03;;;;;;;;;;;3.10;74.80;;;;;;5101454;28;20028;-89
2022/01/13 08:47:29;;;;;;;38.53;15.50;;;3.20;74.70;;;;;;5098301;28;20012;-87
2022/01/13 08:49:54;;;;;;;60.67;23.23;;;3.20;74.30;;;;;;5092533;28;20054;-89
2022/01/13 08:52:20;;;;;;;22.20;11.13;;;3.20;74.50;;;;;;5094287;28;20448;-88
2022/01/13 08:54:46;;;;;;;;;;;3.20;74.60;;;;;;5106022;28;20032;-88
2022/01/13 08:57:13;;;;;;;29.67;15.63;;;3.20;74.70;;;;;;5108540;28;19908;-88
2022/01/13 08:59:40;;;;;;;25.10;9.07;;;3.30;74.30;;;;;;5092108;28;20092;-87
2022/01/13 09:02:05;;;;;;;29.73;12.27;;;3.30;74.40;;;;;;5099279;28;20035;-87
2022/01/13 09:04:31;;;;;;;23.55;9.32;;;3.30;74.40;;;;;;5099291;28;20043;-88
2022/01/13 09:06:57;;;;;;;20.92;8.95;;;3.40;74.30;;;;;;5098718;28;20621;-88
2022/01/13 09:09:23;;;;;;;22.42;10.77;;;3.50;73.80;;;;;;5097702;28;20074;-87
2022/01/13 09:11:48;;;;;;;;;;;3.50;73.20;;;;;;5114745;28;20028;-87
2022/01/13 09:14:15;;;;;;;18.93;8.93;;;3.50;73.10;;;;;;5107190;28;19914;-88
2022/01/13 09:16:42;;;;;;;14.80;7.27;;;3.60;72.50;;;;;;5107096;28;20028;-88
2022/01/13 09:19:10;;;;;;;27.73;11.10;;;3.60;72.50;;;;;;5101530;28;20032;-88
2022/01/13 09:21:37;;;;;;;23.30;11.20;;;3.70;72.20;;;;;;5111282;28;20115;-88
2022/01/13 09:24:09;;;;;;;33.90;12.67;;;3.70;72.20;;;;;;5111689;28;20495;-88
2022/01/13 09:26:35;;;;;;;24.27;9.93;;;3.80;72.10;;;;;;5094045;28;20537;-89
2022/01/13 09:29:01;;;;;;;;;;;3.90;71.90;;;;;;5114365;28;20216;-88
2022/01/13 09:31:26;;;;;;;29.57;12.83;;;4.00;71.90;;;;;;5108326;28;20016;-89
2022/01/13 09:33:54;;;;;;;29.45;11.40;;;4.10;71.10;;;;;;5117208;28;20020;-88
2022/01/13 09:36:20;;;;;;;31.07;12.13;;;4.10;70.80;;;;;;5110466;28;20034;-87
2022/01/13 09:38:45;;;;;;;32.70;15.50;;;4.20;70.20;;;;;;5101473;28;20028;-86
2022/01/13 09:41:13;;;;;;;20.90;8.98;;;4.20;70.30;;;;;;5095416;28;20024;-87
2022/01/13 09:43:42;;;;;;;36.60;13.33;;;4.30;70.20;;;;;;5104745;28;20023;-89
2022/01/13 09:46:09;;;;;;;43.30;18.30;;;4.30;69.90;;;;;;5106837;28;20047;-86
2022/01/13 09:48:39;;;;;;;38.80;16.13;;;4.40;69.90;;;;;;5098115;28;20017;-87
2022/01/13 09:51:05;;;;;;;34.23;14.10;;;4.40;69.20;;;;;;5093092;28;20028;-89
2022/01/13 09:53:30;;;;;;;23.30;11.68;;;4.40;69.30;;;;;;5095471;28;20028;-88
2022/01/13 09:55:56;;;;;;;23.17;6.88;;;4.60;68.80;;;;;;5112024;28;20102;-89
2022/01/13 09:58:22;;;;;;;27.70;11.20;;;4.70;68.60;;;;;;5101383;28;20028;-88
2022/01/13 10:00:47;;;;;;;;;;;4.80;67.60;;;;;;5110752;28;20034;-87
2022/01/13 10:03:18;;;;;;;45.73;17.10;;;4.80;67.60;;;;;;5109708;28;19990;-88
2022/01/13 10:06:01;;;;;;;18.20;10.10;;;4.80;67.40;;;;;;5103076;28;20096;-88
2022/01/13 10:08:49;;;;;;;37.67;13.63;;;4.80;67.00;;;;;;5115437;28;20034;-88
2022/01/13 10:11:36;;;;;;;36.60;14.77;;;4.80;66.50;;;;;;5111430;28;20464;-88
2022/01/13 10:16:23;;;;;;;31.23;12.10;;;4.90;66.30;;;;;;5104078;28;20023;-88
2022/01/13 10:17:04;;;;;;;22.80;9.80;;;4.90;65.80;;;;;;5112830;28;20034;-88
2022/01/13 10:19:42;;;;;;;20.83;8.20;;;5.00;65.00;;;;;;5108543;28;20073;-88
2022/01/13 10:22:26;;;;;;;26.03;10.97;;;4.90;65.30;;;;;;5117811;28;20049;-89
2022/01/13 10:24:56;;;;;;;31.77;14.77;;;4.90;65.30;;;;;;5113910;28;20103;-89
2022/01/13 10:27:28;;;;;;;43.57;15.93;;;4.90;65.40;;;;;;5099912;28;20024;-89
2022/01/13 10:30:00;;;;;;;19.03;9.50;;;4.90;65.70;;;;;;5110255;28;20038;-89
2022/01/13 10:32:40;;;;;;;34.63;14.57;;;5.20;65.00;;;;;;5106268;28;20021;-89
2022/01/13 10:35:11;;;;;;;27.90;12.73;;;5.30;64.60;;;;;;5100420;28;20023;-87
2022/01/13 10:37:39;;;;;;;38.93;17.73;;;5.30;64.50;;;;;;5102384;28;20024;-89
2022/01/13 10:40:06;;;;;;;28.63;11.27;;;5.30;64.00;;;;;;5095685;28;20020;-89
2022/01/13 10:45:19;;;;;;;20.57;9.03;;;5.60;63.30;;;;;;5107647;28;20031;-88
2022/01/13 10:47:54;;;;;;;26.87;11.30;;;5.60;63.20;;;;;;5111516;28;20380;-88
2022/01/13 10:50:21;;;;;;;18.85;9.50;;;5.70;62.80;;;;;;5099405;28;20023;-89
2022/01/13 10:52:51;;;;;;;29.67;12.47;;;5.50;62.80;;;;;;5102566;28;20073;-87
2022/01/13 10:55:19;;;;;;;20.83;11.57;;;5.50;62.70;;;;;;5099953;28;20491;-89
2022/01/13 10:57:47;;;;;;;32.80;12.37;;;5.50;63.00;;;;;;5106522;28;20475;-89
2022/01/13 11:00:16;;;;;;;17.93;8.30;;;5.50;63.00;;;;;;5102203;28;20024;-89
2022/01/13 11:03:02;;;;;;;20.83;10.67;;;5.40;63.00;;;;;;5109241;28;20075;-89
2022/01/13 11:05:29;;;;;;;26.80;11.05;;;5.40;62.90;;;;;;5108220;28;20028;-88
2022/01/13 11:07:57;;;;;;;19.07;7.67;;;5.40;62.60;;;;;;5078196;28;20062;-89
2022/01/13 11:10:23;;;;;;;30.63;11.57;;;5.30;63.00;;;;;;5099156;28;20081;-89
2022/01/13 11:12:56;;;;;;;29.13;11.33;;;5.20;63.40;;;;;;5102129;28;20391;-87
2022/01/13 11:19:01;;;;;;;29.47;10.37;;;5.10;63.80;;;;;;5061650;28;20795;-89
2022/01/13 11:21:27;;;;;;;11.27;5.37;;;5.00;64.30;;;;;;5050504;28;20044;-88
2022/01/13 11:23:54;;;;;;;19.38;8.60;;;5.00;64.60;;;;;;5037749;28;20041;-88
2022/01/13 11:26:20;;;;;;;18.37;8.60;;;5.00;64.80;;;;;;5066069;28;20671;-88
2022/01/13 11:28:45;;;;;;;;;;;4.90;65.20;;;;;;5095316;28;20113;-89
2022/01/13 11:31:11;;;;;;;24.67;9.70;;;4.90;65.40;;;;;;5104788;28;19908;-88
2022/01/13 11:33:38;;;;;;;21.00;9.27;;;5.00;65.50;;;;;;5094898;28;20035;-89
2022/01/13 11:36:06;;;;;;;18.27;7.23;;;5.00;65.70;;;;;;5104359;28;20028;-89
2022/01/13 11:38:32;;;;;;;16.83;8.87;;;5.00;65.90;;;;;;5099148;28;20096;-88
2022/01/13 11:41:00;;;;;;;27.70;12.90;;;5.00;66.10;;;;;;5100015;28;20043;-88
2022/01/13 11:43:36;;;;;;;23.50;10.07;;;5.00;66.20;;;;;;5094549;28;20119;-87
2022/01/13 11:46:14;;;;;;;22.23;8.55;;;5.00;66.30;;;;;;5100008;28;20063;-88
2022/01/13 11:48:58;;;;;;;26.93;10.13;;;5.10;66.40;;;;;;5095344;28;20028;-87
2022/01/13 11:51:24;;;;;;;24.10;8.47;;;5.10;66.40;;;;;;5110633;27;20484;-89
2022/01/13 11:53:59;;;;;;;25.85;11.63;;;5.20;66.30;;;;;;5097862;28;20024;-89
2022/01/13 11:56:26;;;;;;;22.60;8.30;;;5.30;66.20;;;;;;5092678;28;20397;-89
2022/01/13 11:58:53;;;;;;;15.17;6.40;;;5.30;66.20;;;;;;5104825;28;20281;-90
2022/01/13 12:01:31;;;;;;;23.50;9.63;;;5.40;66.10;;;;;;5109515;28;20023;-89
2022/01/13 12:04:05;;;;;;;27.43;11.77;;;5.40;65.80;;;;;;5092916;28;20037;-90
2022/01/13 12:06:45;;;;;;;28.00;11.23;;;5.40;65.60;;;;;;5093491;28;20381;-88
2022/01/13 12:09:31;;;;;;;17.07;7.27;;;5.40;65.60;;;;;;5092815;28;20035;-87
2022/01/13 12:11:58;;;;;;;11.23;4.90;;;5.40;65.70;;;;;;5091954;28;20032;-89
2022/01/13 12:14:29;;;;;;;24.93;11.63;;;5.50;65.40;;;;;;5103889;28;20380;-90
2022/01/13 12:17:23;;;;;;;15.73;8.00;;;5.40;65.30;;;;;;5104191;28;20702;-87
2022/01/13 12:19:51;;;;;;;30.53;12.07;;;5.40;65.40;;;;;;5104764;28;20024;-90
2022/01/13 12:22:35;;;;;;;29.90;12.77;;;5.40;65.30;;;;;;5100929;28;20055;-89
2022/01/13 12:25:04;;;;;;;27.80;12.63;;;5.40;65.50;;;;;;5098671;28;20040;-89
2022/01/13 12:27:41;;;;;;;15.00;8.20;;;5.40;65.70;;;;;;5101282;28;20031;-89
2022/01/13 12:30:18;;;;;;;15.73;7.17;;;5.40;65.80;;;;;;5101375;28;20085;-89
2022/01/13 12:32:56;;;;;;;20.55;8.63;;;5.40;66.00;;;;;;5101554;28;20091;-89
2022/01/13 12:35:21;;;;;;;25.60;11.67;;;5.40;66.20;;;;;;5097373;28;20043;-90
2022/01/13 12:38:04;;;;;;;32.00;14.60;;;5.30;66.40;;;;;;5139854;27;20032;-88
2022/01/13 12:40:39;;;;;;;28.07;12.00;;;5.30;66.50;;;;;;5093090;28;20130;-89
2022/01/13 12:43:50;;;;;;;17.13;6.23;;;5.40;66.40;;;;;;5105960;28;20493;-88
2022/01/13 12:46:22;;;;;;;24.43;8.93;;;5.40;66.30;;;;;;5093711;28;20036;-89
2022/01/13 12:48:52;;;;;;;28.87;11.27;;;5.30;66.30;;;;;;5095211;28;20028;-88
2022/01/13 12:51:21;;;;;;;35.17;14.53;;;5.40;66.50;;;;;;5104283;28;20104;-89
2022/01/13 12:53:48;;;;;;;28.23;11.23;;;5.40;66.40;;;;;;5100923;28;20023;-88
2022/01/13 12:56:19;;;;;;;29.63;12.77;;;5.50;66.30;;;;;;5107294;28;20049;-89
2022/01/13 12:58:56;;;;;;;26.40;10.43;;;5.40;66.40;;;;;;5103386;28;20035;-89
2022/01/13 13:01:25;;;;;;;28.93;13.53;;;5.40;66.30;;;;;;5104420;28;20008;-88
2022/01/13 13:04:03;;;;;;;18.70;8.30;;;5.40;66.50;;;;;;5106661;28;20123;-88
2022/01/13 13:06:32;;;;;;;30.67;14.17;;;5.40;66.30;;;;;;5103672;28;20071;-89
2022/01/13 13:09:07;;;;;;;29.93;12.60;;;5.30;66.40;;;;;;5107541;28;20024;-88
2022/01/13 13:11:38;;;;;;;18.97;8.33;;;5.30;66.60;;;;;;5101741;28;20073;-90
2022/01/13 13:14:11;;;;;;;27.20;12.10;;;5.30;66.60;;;;;;5103257;28;20116;-86
2022/01/13 13:16:48;;;;;;;22.10;9.43;;;5.30;66.70;;;;;;5097090;28;20020;-86
2022/01/13 13:19:14;;;;;;;23.97;9.97;;;5.30;66.80;;;;;;5106436;28;20020;-88
2022/01/13 13:21:40;;;;;;;25.90;11.88;;;5.30;67.00;;;;;;5096856;28;20427;-88
2022/01/13 13:24:06;;;;;;;;;;;5.30;67.20;;;;;;5095419;28;20032;-89